createdAt,value
2018-05-16T00:00:18.486Z,3.4
2018-05-16T00:03:18.347Z,2.8
2018-05-16T00:06:18.399Z,2.6
2018-05-16T00:09:18.374Z,2.9
2018-05-16T00:12:18.377Z,2.7
2018-05-16T00:15:18.480Z,3
2018-05-16T00:18:18.369Z,2.8
2018-05-16T00:21:18.377Z,2.8
2018-05-16T00:24:18.500Z,2.7
2018-05-16T00:27:18.503Z,2.9
2018-05-16T00:30:18.516Z,3.3
2018-05-16T00:33:18.615Z,3
2018-05-16T00:36:18.467Z,3.3
2018-05-16T00:39:18.309Z,2.8
2018-05-16T00:42:18.343Z,2.9
2018-05-16T00:45:18.457Z,3
2018-05-16T00:48:18.490Z,2.9
2018-05-16T00:51:18.359Z,3.1
2018-05-16T00:54:18.590Z,2.7
2018-05-16T00:57:18.247Z,2.8
2018-05-16T01:00:18.429Z,2.8
2018-05-16T01:03:18.406Z,2.8
2018-05-16T01:06:18.405Z,2.9
2018-05-16T01:09:18.433Z,2.7
2018-05-16T01:12:18.386Z,2.8
2018-05-16T01:15:18.621Z,2.6
2018-05-16T01:18:18.563Z,2.8
2018-05-16T01:21:18.258Z,2.6
2018-05-16T01:24:18.454Z,3
2018-05-16T01:27:18.358Z,3
2018-05-16T01:30:18.424Z,2.9
2018-05-16T01:33:18.541Z,2.8
2018-05-16T01:36:18.342Z,3
2018-05-16T01:39:18.432Z,3
2018-05-16T01:42:18.483Z,2.9
2018-05-16T01:45:18.412Z,3
2018-05-16T01:48:18.296Z,2.9
2018-05-16T01:51:18.388Z,3.2
2018-05-16T01:54:18.536Z,2.9
2018-05-16T01:57:18.280Z,2.9
2018-05-16T02:00:18.403Z,2.9
2018-05-16T02:03:18.553Z,2.9
2018-05-16T02:06:18.310Z,2.8
2018-05-16T02:09:18.560Z,3.2
2018-05-16T02:12:18.391Z,3.3
2018-05-16T02:15:18.483Z,3
2018-05-16T02:18:18.447Z,2.9
2018-05-16T02:21:18.495Z,2.7
2018-05-16T02:24:18.484Z,2.9
2018-05-16T02:27:18.417Z,3
2018-05-16T02:30:18.563Z,2.8
2018-05-16T02:33:18.446Z,3
2018-05-16T02:36:18.579Z,2.9
2018-05-16T02:39:18.343Z,2.8
2018-05-16T02:42:18.472Z,3
2018-05-16T02:45:18.424Z,2.9
2018-05-16T02:48:18.379Z,3
2018-05-16T02:51:18.427Z,2.9
2018-05-16T02:54:18.938Z,2.9
2018-05-16T02:57:18.347Z,3
2018-05-16T03:00:18.426Z,2.8
2018-05-16T03:03:18.592Z,3.2
2018-05-16T03:06:18.260Z,2.7
2018-05-16T03:09:18.448Z,2.8
2018-05-16T03:12:18.704Z,2.8
2018-05-16T03:15:18.341Z,2.9
2018-05-16T03:18:18.396Z,2.8
2018-05-16T03:21:18.387Z,3
2018-05-16T03:24:18.527Z,4
2018-05-16T03:27:18.203Z,2.9
2018-05-16T03:30:18.529Z,2.8
2018-05-16T03:33:18.575Z,2.8
2018-05-16T03:36:18.438Z,2.9
2018-05-16T03:39:18.392Z,2.8
2018-05-16T03:42:18.398Z,2.8
2018-05-16T03:45:18.473Z,2.8
2018-05-16T03:48:18.459Z,2.8
2018-05-16T03:51:18.404Z,2.5
2018-05-16T03:54:18.341Z,2.8
2018-05-16T03:57:18.582Z,2.8
2018-05-16T04:00:18.448Z,2.8
2018-05-16T04:03:18.350Z,3
2018-05-16T04:06:18.457Z,2.7
2018-05-16T04:09:18.305Z,2.8
2018-05-16T04:12:18.405Z,2.8
2018-05-16T04:15:18.215Z,2.7
2018-05-16T04:18:18.351Z,2.8
2018-05-16T04:21:18.467Z,2.7
2018-05-16T04:24:18.284Z,2.6
2018-05-16T04:27:18.513Z,2.9
2018-05-16T04:30:18.274Z,2.7
2018-05-16T04:33:18.451Z,2.8
2018-05-16T04:36:18.275Z,2.9
2018-05-16T04:39:18.418Z,2.8
2018-05-16T04:42:18.411Z,2.8
2018-05-16T04:45:18.457Z,2.8
2018-05-16T04:48:18.539Z,3.1
2018-05-16T04:51:18.628Z,3
2018-05-16T04:54:18.621Z,2.7
2018-05-16T04:57:18.362Z,2.9
2018-05-16T05:00:18.381Z,2.9
2018-05-16T05:03:18.532Z,3
2018-05-16T05:06:18.393Z,3
2018-05-16T05:09:18.500Z,2.8
2018-05-16T05:12:18.380Z,2.7
2018-05-16T05:15:18.484Z,2.8
2018-05-16T05:18:19.863Z,2.8
2018-05-16T05:21:18.361Z,2.8
2018-05-16T05:24:18.265Z,3
2018-05-16T05:27:18.336Z,2.8
2018-05-16T05:30:19.235Z,2.7
2018-05-16T05:33:18.451Z,2.7
2018-05-16T05:36:18.302Z,2.7
2018-05-16T05:39:18.377Z,2.8
2018-05-16T05:42:18.154Z,2.9
2018-05-16T05:45:18.301Z,2.8
2018-05-16T05:48:18.404Z,2.7
2018-05-16T05:51:18.377Z,2.9
2018-05-16T05:54:18.248Z,2.9
2018-05-16T05:57:18.399Z,2.7
2018-05-16T06:00:18.257Z,3.1
2018-05-16T06:03:18.421Z,2.9
2018-05-16T06:06:18.283Z,2.7
2018-05-16T06:09:18.482Z,2.8
2018-05-16T06:12:18.473Z,2.8
2018-05-16T06:15:18.221Z,2.7
2018-05-16T06:18:18.317Z,2.7
2018-05-16T06:21:18.487Z,2.8
2018-05-16T06:24:18.488Z,2.7
2018-05-16T06:27:20.185Z,2.9
2018-05-16T06:30:18.344Z,2.8
2018-05-16T06:33:18.473Z,2.6
2018-05-16T06:36:18.247Z,2.8
2018-05-16T06:39:19.349Z,2.7
2018-05-16T06:42:18.613Z,3.1
2018-05-16T06:45:18.493Z,2.8
2018-05-16T06:48:18.389Z,2.7
2018-05-16T06:51:18.385Z,2.6
2018-05-16T06:54:18.292Z,2.6
2018-05-16T06:57:18.331Z,2.8
2018-05-16T07:00:18.457Z,2.7
2018-05-16T07:03:18.238Z,2.8
2018-05-16T07:06:18.306Z,2.8
2018-05-16T07:09:18.271Z,2.7
2018-05-16T07:12:18.382Z,2.7
2018-05-16T07:15:18.462Z,2.7
2018-05-16T07:18:18.283Z,2.6
2018-05-16T07:21:18.267Z,2.5
2018-05-16T07:24:18.272Z,2.7
2018-05-16T07:27:18.276Z,2.6
2018-05-16T07:30:18.463Z,2.6
2018-05-16T07:33:18.464Z,2.7
2018-05-16T07:36:18.558Z,2.5
2018-05-16T07:39:18.313Z,2.6
2018-05-16T07:42:18.307Z,2.6
2018-05-16T07:45:18.211Z,2.7
2018-05-16T07:48:18.503Z,2.7
2018-05-16T07:51:19.327Z,2.6
2018-05-16T07:54:18.282Z,2.6
2018-05-16T07:57:18.488Z,2.6
2018-05-16T08:00:18.238Z,2.5
2018-05-16T08:03:19.789Z,2.6
2018-05-16T08:06:18.338Z,2.5
2018-05-16T08:09:18.346Z,2.5
2018-05-16T08:12:19.295Z,2.8
2018-05-16T08:15:18.114Z,2.6
2018-05-16T08:18:18.237Z,2.7
2018-05-16T08:21:18.459Z,2.6
2018-05-16T08:24:18.173Z,2.5
2018-05-16T08:27:18.128Z,2.6
2018-05-16T08:30:18.483Z,2.7
2018-05-16T08:33:18.370Z,2.5
2018-05-16T08:36:28.386Z,2.7
2018-05-16T08:39:18.249Z,2.6
2018-05-16T08:42:18.271Z,2.7
2018-05-16T08:45:18.551Z,2.6
2018-05-16T08:48:18.432Z,2.8
2018-05-16T08:51:18.493Z,2.5
2018-05-16T08:54:18.491Z,2.6
2018-05-16T08:57:18.309Z,2.6
2018-05-16T09:00:18.308Z,2.5
2018-05-16T09:03:18.713Z,2.5
2018-05-16T09:06:18.672Z,2.5
2018-05-16T09:09:18.843Z,2.5
2018-05-16T09:12:19.950Z,2.5
2018-05-16T09:15:18.722Z,2.5
2018-05-16T09:18:18.784Z,2.4
2018-05-16T09:21:18.348Z,2.6
2018-05-16T09:24:18.579Z,2.4
2018-05-16T09:27:18.980Z,2.5
2018-05-16T09:30:19.800Z,2.4
2018-05-16T09:33:19.017Z,2.7
2018-05-16T09:36:18.749Z,2.6
2018-05-16T09:39:20.026Z,2.3
2018-05-16T09:42:18.374Z,2.4
2018-05-16T09:45:18.799Z,2.5
2018-05-16T09:48:18.995Z,2.4
2018-05-16T09:51:18.324Z,2.3
2018-05-16T09:54:18.431Z,2.6
2018-05-16T09:57:18.416Z,5.4
2018-05-16T10:00:18.827Z,3.2
2018-05-16T10:03:18.702Z,2.9
2018-05-16T10:06:20.717Z,4.7
2018-05-16T10:09:18.976Z,3.3
2018-05-16T10:12:18.952Z,2.3
2018-05-16T10:15:18.664Z,2.7
2018-05-16T10:18:18.728Z,3.2
2018-05-16T10:21:18.837Z,2.5
2018-05-16T10:24:18.705Z,2.9
2018-05-16T10:27:18.886Z,2.9
2018-05-16T10:30:19.045Z,2.8
2018-05-16T10:33:18.946Z,3.5
2018-05-16T10:36:20.350Z,6
2018-05-16T10:39:19.001Z,3.1
2018-05-16T10:42:20.264Z,2.6
2018-05-16T10:45:18.842Z,2.8
2018-05-16T10:48:19.022Z,2.9
2018-05-16T10:51:18.864Z,2.9
2018-05-16T10:54:20.241Z,2.6
2018-05-16T10:57:19.350Z,3.3
2018-05-16T11:00:18.924Z,2.8
2018-05-16T11:03:19.167Z,2.9
2018-05-16T11:06:18.261Z,2.5
2018-05-16T11:09:18.316Z,2.6
2018-05-16T11:12:18.460Z,2.6
2018-05-16T11:15:18.072Z,2.8
2018-05-16T11:18:18.331Z,2.5
2018-05-16T11:21:18.961Z,2.7
2018-05-16T11:24:18.401Z,2.7
2018-05-16T11:27:18.271Z,2.5
2018-05-16T11:30:18.161Z,2.6
2018-05-16T11:33:18.207Z,2.8
2018-05-16T11:36:18.397Z,2.7
2018-05-16T11:39:18.275Z,2.5
2018-05-16T11:42:18.490Z,2.3
2018-05-16T11:45:18.355Z,2.5
2018-05-16T11:48:28.277Z,5
2018-05-16T11:51:18.190Z,4.3
2018-05-16T11:54:18.385Z,5.1
2018-05-16T11:57:18.407Z,5.5
2018-05-16T12:00:18.411Z,4.4
2018-05-16T12:03:18.352Z,4.1
2018-05-16T12:06:18.426Z,5.5
2018-05-16T12:09:18.910Z,3.6
2018-05-16T12:12:20.366Z,2.8
2018-05-16T12:15:18.512Z,3.2
2018-05-16T12:18:18.377Z,5.2
2018-05-16T12:21:18.424Z,2.9
2018-05-16T12:24:18.583Z,3
2018-05-16T12:27:18.476Z,3.6
2018-05-16T12:30:18.414Z,4.4
2018-05-16T12:33:18.146Z,5.9
2018-05-16T12:36:18.273Z,2.7
2018-05-16T12:39:18.284Z,3.2
2018-05-16T12:42:18.267Z,3
2018-05-16T12:45:18.255Z,2.8
2018-05-16T12:48:18.253Z,5.9
2018-05-16T12:51:18.327Z,3.4
2018-05-16T12:54:18.235Z,3.7
2018-05-16T12:57:18.303Z,4.8
2018-05-16T13:00:18.307Z,4.2
2018-05-16T13:03:18.175Z,2.7
2018-05-16T13:06:18.162Z,3.3
2018-05-16T13:09:18.581Z,4.4
2018-05-16T13:12:18.367Z,2.7
2018-05-16T13:15:18.203Z,2.9
2018-05-16T13:18:18.206Z,3.1
2018-05-16T13:21:18.604Z,3
2018-05-16T13:24:18.225Z,3.2
2018-05-16T13:27:18.238Z,5.6
2018-05-16T13:30:18.320Z,5
2018-05-16T13:33:18.354Z,5.7
2018-05-16T13:36:19.433Z,4.1
2018-05-16T13:39:18.278Z,4.6
2018-05-16T13:42:18.320Z,5.7
2018-05-16T13:45:49.990Z,3.7
2018-05-16T13:48:18.364Z,3.2
2018-05-16T13:51:18.127Z,3.5
2018-05-16T13:54:18.278Z,3
2018-05-16T13:57:18.366Z,3.7
2018-05-16T14:00:18.291Z,3.3
2018-05-16T14:03:18.004Z,2.8
2018-05-16T14:06:18.189Z,3.1
2018-05-16T14:09:18.280Z,3.1
2018-05-16T14:12:18.409Z,3.9
2018-05-16T14:15:18.860Z,3.3
2018-05-16T14:18:18.551Z,3
2018-05-16T14:21:18.328Z,3.6
2018-05-16T14:24:18.278Z,2.7
2018-05-16T14:27:18.399Z,3.2
2018-05-16T14:30:18.284Z,2.8
2018-05-16T14:33:18.071Z,4.5
2018-05-16T14:36:18.307Z,3.2
2018-05-16T14:39:50.097Z,3.8
2018-05-16T14:42:18.027Z,3
2018-05-16T14:45:18.386Z,2.9
2018-05-16T14:48:18.270Z,2.9
2018-05-16T14:51:18.372Z,3.3
2018-05-16T14:54:18.252Z,3
2018-05-16T14:57:18.275Z,2.9
2018-05-16T15:00:18.036Z,2.8
2018-05-16T15:03:18.222Z,3.4
2018-05-16T15:06:18.371Z,3.5
2018-05-16T15:09:18.112Z,2.8
2018-05-16T15:12:18.205Z,3.1
2018-05-16T15:15:18.338Z,2.9
2018-05-16T15:18:18.232Z,3
2018-05-16T15:21:18.912Z,2.8
2018-05-16T15:24:18.320Z,2.8
2018-05-16T15:27:18.993Z,3.5
2018-05-16T15:30:18.462Z,2.8
2018-05-16T15:33:18.209Z,2.9
2018-05-16T15:36:18.168Z,2.5
2018-05-16T15:39:18.226Z,2.9
2018-05-16T15:42:18.171Z,2.9
2018-05-16T15:45:18.312Z,2.7
2018-05-16T15:48:18.165Z,2.7
2018-05-16T15:51:18.050Z,2.7
2018-05-16T15:54:18.199Z,2.7
2018-05-16T15:57:18.124Z,2.6
2018-05-16T16:00:18.239Z,2.5
2018-05-16T16:03:18.289Z,2.8
2018-05-16T16:06:18.160Z,4
2018-05-16T16:09:18.125Z,2.8
2018-05-16T16:12:18.374Z,2.6
2018-05-16T16:15:49.989Z,3.1
2018-05-16T16:18:18.264Z,3.8
2018-05-16T16:21:18.242Z,2.8
2018-05-16T16:24:18.228Z,3.7
2018-05-16T16:27:18.351Z,4.1
2018-05-16T16:30:18.372Z,8.7
2018-05-16T16:33:18.608Z,6.2
2018-05-16T16:36:18.507Z,4.8
2018-05-16T16:39:18.453Z,4.3
2018-05-16T16:42:18.291Z,3.5
2018-05-16T16:45:18.460Z,3.5
2018-05-16T16:48:18.320Z,3
2018-05-16T16:51:18.272Z,5.1
2018-05-16T16:54:18.453Z,3.5
2018-05-16T16:57:19.865Z,9.3
2018-05-16T17:00:18.366Z,5.7
2018-05-16T17:03:18.271Z,5.2
2018-05-16T17:06:18.159Z,4.5
2018-05-16T17:09:18.691Z,3.2
2018-05-16T17:12:18.352Z,3.5
2018-05-16T17:15:18.164Z,4.3
2018-05-16T17:18:18.366Z,4
2018-05-16T17:21:18.232Z,4.7
2018-05-16T17:24:18.402Z,4.7
2018-05-16T17:27:18.139Z,4.8
2018-05-16T17:30:18.677Z,3
2018-05-16T17:33:18.177Z,4.8
2018-05-16T17:36:18.189Z,6
2018-05-16T17:39:18.378Z,6.2
2018-05-16T17:42:18.242Z,4.2
2018-05-16T17:45:18.193Z,3.5
2018-05-16T17:48:18.156Z,3.4
2018-05-16T17:51:18.102Z,4.1
2018-05-16T17:54:18.251Z,5.6
2018-05-16T17:57:18.176Z,8.2
2018-05-16T18:00:18.204Z,7.8
2018-05-16T18:03:18.137Z,4.5
2018-05-16T18:06:18.199Z,3.9
2018-05-16T18:09:18.704Z,2.8
2018-05-16T18:12:18.263Z,5
2018-05-16T18:15:18.325Z,4
2018-05-16T18:18:18.093Z,3.1
2018-05-16T18:21:18.195Z,3.5
2018-05-16T18:24:18.280Z,5.5
2018-05-16T18:27:18.218Z,4.1
2018-05-16T18:30:18.146Z,4.2
2018-05-16T18:33:18.210Z,4.7
2018-05-16T18:36:18.159Z,3.2
2018-05-16T18:39:18.167Z,2.9
2018-05-16T18:42:18.760Z,3.3
2018-05-16T18:45:18.301Z,3.6
2018-05-16T18:48:18.180Z,4.5
2018-05-16T18:51:18.176Z,2.9
2018-05-16T18:54:18.294Z,3.1
2018-05-16T18:57:18.279Z,2.7
2018-05-16T19:00:18.162Z,3
2018-05-16T19:03:18.163Z,2.8
2018-05-16T19:06:18.186Z,3.3
2018-05-16T19:09:18.342Z,2.7
2018-05-16T19:12:18.303Z,2.6
2018-05-16T19:15:18.255Z,2.7
2018-05-16T19:18:18.243Z,2.5
2018-05-16T19:21:18.268Z,3.3
2018-05-16T19:24:18.449Z,3.8
2018-05-16T19:27:18.398Z,3.1
2018-05-16T19:30:18.042Z,3.5
2018-05-16T19:33:18.361Z,2.6
2018-05-16T19:36:17.973Z,2.8
2018-05-16T19:39:18.338Z,2.7
2018-05-16T19:42:18.228Z,3.8
2018-05-16T19:45:18.067Z,5.4
2018-05-16T19:48:18.237Z,5.5
2018-05-16T19:51:17.939Z,8.3
2018-05-16T19:54:18.050Z,10.9
2018-05-16T19:57:18.096Z,5.2
2018-05-16T20:03:55.176Z,4.3
2018-05-16T20:14:36.554Z,8.1
2018-05-16T20:17:36.130Z,6.1
2018-05-16T20:20:36.038Z,3.7
2018-05-16T20:23:46.577Z,5
2018-05-16T20:26:36.124Z,3.8
2018-05-16T20:29:36.183Z,5.8
2018-05-16T20:32:35.974Z,5.7
2018-05-16T20:35:35.988Z,4.7
2018-05-16T20:38:35.959Z,4.2
2018-05-16T20:41:36.095Z,4.3
2018-05-16T20:44:36.019Z,3.7
2018-05-16T20:47:36.050Z,3.4
2018-05-16T20:50:36.232Z,4.7
2018-05-16T20:53:36.092Z,4.2
2018-05-16T20:56:35.968Z,3.4
2018-05-16T20:59:35.926Z,3.4
2018-05-16T21:02:36.031Z,3.5
2018-05-16T21:05:35.999Z,3.2
2018-05-16T21:08:35.977Z,3.4
2018-05-16T21:11:35.919Z,3.2
2018-05-16T21:14:35.863Z,3.7
2018-05-16T21:17:35.988Z,3.3
2018-05-16T21:20:35.895Z,3.4
2018-05-16T21:23:35.999Z,3.3
2018-05-16T21:26:35.965Z,3.4
2018-05-16T21:29:36.055Z,3.3
2018-05-16T21:32:35.952Z,3.4
2018-05-16T21:35:35.980Z,3.4
2018-05-16T21:38:35.919Z,3.6
2018-05-16T21:41:35.833Z,3.5
2018-05-16T21:44:35.954Z,3.5
2018-05-16T21:47:35.936Z,4
2018-05-16T21:50:36.273Z,3.1
2018-05-16T21:53:36.076Z,3.3
2018-05-16T21:56:35.880Z,3.2
2018-05-16T21:59:36.062Z,3.7
2018-05-16T22:02:35.829Z,3.3
2018-05-16T22:05:35.844Z,3.3
2018-05-16T22:08:36.048Z,3.2
2018-05-16T22:11:36.000Z,3.2
2018-05-16T22:14:45.856Z,3.3
2018-05-16T22:17:35.861Z,3.2
2018-05-16T22:20:35.990Z,3.4
2018-05-16T22:23:35.944Z,3.3
2018-05-16T22:26:36.025Z,3.3
2018-05-16T22:29:35.828Z,3.4
2018-05-16T22:32:35.868Z,3.1
2018-05-16T22:35:35.928Z,3.2
2018-05-16T22:38:35.841Z,3.5
2018-05-16T22:41:35.852Z,3.2
2018-05-16T22:44:35.834Z,3.5
2018-05-16T22:47:35.974Z,3.2
2018-05-16T22:50:35.900Z,3.2
2018-05-16T22:53:35.939Z,3
2018-05-16T22:56:35.909Z,3.1
2018-05-16T22:59:35.918Z,3
2018-05-16T23:02:36.006Z,3.2
2018-05-16T23:05:36.009Z,3.3
2018-05-16T23:08:35.925Z,3.2
2018-05-16T23:11:35.923Z,3.3
2018-05-16T23:14:35.827Z,3.3
2018-05-16T23:17:35.972Z,3.5
2018-05-16T23:20:36.039Z,3.3
2018-05-16T23:23:35.927Z,3
2018-05-16T23:26:35.811Z,3
2018-05-16T23:29:35.892Z,3.2
2018-05-16T23:32:35.793Z,2.9
2018-05-16T23:35:36.013Z,3.1
2018-05-16T23:38:36.018Z,3.2
2018-05-16T23:41:35.894Z,3.2
2018-05-16T23:44:36.068Z,3.2
2018-05-16T23:47:35.847Z,3
2018-05-16T23:50:35.931Z,2.9
2018-05-16T23:53:35.884Z,2.9
2018-05-16T23:56:36.054Z,2.8
2018-05-16T23:59:36.000Z,2.9
